sensor_id;sensor_type;location;lat;lon;timestamp;P1;durP1;ratioP1;P2;durP2;ratioP2
13951;SDS011;39535;52.192;9.886;2023-09-19T00:00:30;0.77;;;0.77;;
13951;SDS011;39535;52.192;9.886;2023-09-19T00:02:56;1.33;;;0.90;;
13951;SDS011;39535;52.192;9.886;2023-09-19T00:05:26;2.30;;;1.00;;
13951;SDS011;39535;52.192;9.886;2023-09-19T00:07:53;0.97;;;0.77;;
13951;SDS011;39535;52.192;9.886;2023-09-19T00:10:20;0.90;;;0.90;;
13951;SDS011;39535;52.192;9.886;2023-09-19T00:12:49;1.20;;;0.80;;
13951;SDS011;39535;52.192;9.886;2023-09-19T00:15:16;1.23;;;1.10;;
13951;SDS011;39535;52.192;9.886;2023-09-19T00:17:43;2.40;;;0.80;;
13951;SDS011;39535;52.192;9.886;2023-09-19T00:20:10;0.90;;;0.90;;
13951;SDS011;39535;52.192;9.886;2023-09-19T00:22:43;1.10;;;0.90;;
13951;SDS011;39535;52.192;9.886;2023-09-19T00:25:09;1.67;;;1.10;;
13951;SDS011;39535;52.192;9.886;2023-09-19T00:27:37;1.83;;;1.10;;
13951;SDS011;39535;52.192;9.886;2023-09-19T00:30:06;1.07;;;0.90;;
13951;SDS011;39535;52.192;9.886;2023-09-19T00:32:39;1.20;;;1.10;;
13951;SDS011;39535;52.192;9.886;2023-09-19T00:35:06;1.40;;;1.17;;
13951;SDS011;39535;52.192;9.886;2023-09-19T00:37:34;1.40;;;1.30;;
13951;SDS011;39535;52.192;9.886;2023-09-19T00:40:02;3.53;;;1.80;;
13951;SDS011;39535;52.192;9.886;2023-09-19T00:42:30;2.03;;;1.77;;
13951;SDS011;39535;52.192;9.886;2023-09-19T00:44:57;2.90;;;1.90;;
13951;SDS011;39535;52.192;9.886;2023-09-19T00:47:23;1.83;;;1.73;;
13951;SDS011;39535;52.192;9.886;2023-09-19T00:49:50;2.30;;;2.00;;
13951;SDS011;39535;52.192;9.886;2023-09-19T00:52:17;1.60;;;1.50;;
13951;SDS011;39535;52.192;9.886;2023-09-19T00:54:45;1.93;;;1.70;;
13951;SDS011;39535;52.192;9.886;2023-09-19T00:57:13;3.37;;;2.00;;
13951;SDS011;39535;52.192;9.886;2023-09-19T00:59:42;2.60;;;1.93;;
13951;SDS011;39535;52.192;9.886;2023-09-19T01:02:09;2.53;;;1.70;;
13951;SDS011;39535;52.192;9.886;2023-09-19T01:04:35;3.50;;;2.20;;
13951;SDS011;39535;52.192;9.886;2023-09-19T01:07:02;2.27;;;2.07;;
13951;SDS011;39535;52.192;9.886;2023-09-19T01:09:29;3.53;;;2.80;;
13951;SDS011;39535;52.192;9.886;2023-09-19T01:11:58;3.53;;;3.10;;
13951;SDS011;39535;52.192;9.886;2023-09-19T01:14:31;4.13;;;2.90;;
13951;SDS011;39535;52.192;9.886;2023-09-19T01:17:05;3.70;;;3.40;;
13951;SDS011;39535;52.192;9.886;2023-09-19T01:19:53;3.30;;;2.90;;
13951;SDS011;39535;52.192;9.886;2023-09-19T01:22:37;3.43;;;2.87;;
13951;SDS011;39535;52.192;9.886;2023-09-19T01:25:20;4.10;;;2.90;;
13951;SDS011;39535;52.192;9.886;2023-09-19T01:28:15;3.87;;;3.40;;
13951;SDS011;39535;52.192;9.886;2023-09-19T01:30:56;3.07;;;2.67;;
13951;SDS011;39535;52.192;9.886;2023-09-19T01:33:24;3.10;;;2.80;;
13951;SDS011;39535;52.192;9.886;2023-09-19T01:35:51;4.07;;;2.73;;
13951;SDS011;39535;52.192;9.886;2023-09-19T01:38:17;3.00;;;2.70;;
13951;SDS011;39535;52.192;9.886;2023-09-19T01:40:47;3.03;;;2.73;;
13951;SDS011;39535;52.192;9.886;2023-09-19T01:43:25;3.40;;;3.10;;
13951;SDS011;39535;52.192;9.886;2023-09-19T01:45:59;3.70;;;3.40;;
13951;SDS011;39535;52.192;9.886;2023-09-19T01:48:34;4.67;;;3.37;;
13951;SDS011;39535;52.192;9.886;2023-09-19T01:51:05;3.17;;;2.90;;
13951;SDS011;39535;52.192;9.886;2023-09-19T01:53:34;3.97;;;2.93;;
13951;SDS011;39535;52.192;9.886;2023-09-19T01:56:07;3.70;;;2.77;;
13951;SDS011;39535;52.192;9.886;2023-09-19T01:58:37;3.73;;;3.10;;
13951;SDS011;39535;52.192;9.886;2023-09-19T02:01:10;4.07;;;2.90;;
13951;SDS011;39535;52.192;9.886;2023-09-19T02:03:42;6.47;;;3.30;;
13951;SDS011;39535;52.192;9.886;2023-09-19T02:06:13;4.27;;;3.03;;
13951;SDS011;39535;52.192;9.886;2023-09-19T02:08:41;5.53;;;3.23;;
13951;SDS011;39535;52.192;9.886;2023-09-19T02:11:07;4.13;;;3.23;;
13951;SDS011;39535;52.192;9.886;2023-09-19T02:13:33;4.80;;;3.10;;
13951;SDS011;39535;52.192;9.886;2023-09-19T02:16:00;4.10;;;3.17;;
13951;SDS011;39535;52.192;9.886;2023-09-19T02:18:28;2.80;;;2.60;;
13951;SDS011;39535;52.192;9.886;2023-09-19T02:20:55;4.63;;;3.00;;
13951;SDS011;39535;52.192;9.886;2023-09-19T02:23:23;3.30;;;2.97;;
13951;SDS011;39535;52.192;9.886;2023-09-19T02:25:54;3.90;;;3.47;;
13951;SDS011;39535;52.192;9.886;2023-09-19T02:28:22;4.53;;;3.30;;
13951;SDS011;39535;52.192;9.886;2023-09-19T02:30:48;5.40;;;3.03;;
13951;SDS011;39535;52.192;9.886;2023-09-19T02:33:15;3.70;;;3.40;;
13951;SDS011;39535;52.192;9.886;2023-09-19T02:35:43;3.60;;;3.30;;
13951;SDS011;39535;52.192;9.886;2023-09-19T02:38:10;5.07;;;3.13;;
13951;SDS011;39535;52.192;9.886;2023-09-19T02:40:37;4.93;;;3.20;;
13951;SDS011;39535;52.192;9.886;2023-09-19T02:43:03;5.17;;;3.50;;
13951;SDS011;39535;52.192;9.886;2023-09-19T02:45:30;8.23;;;3.87;;
13951;SDS011;39535;52.192;9.886;2023-09-19T02:47:57;4.43;;;3.73;;
13951;SDS011;39535;52.192;9.886;2023-09-19T02:50:24;7.20;;;3.50;;
13951;SDS011;39535;52.192;9.886;2023-09-19T02:52:52;4.50;;;3.63;;
13951;SDS011;39535;52.192;9.886;2023-09-19T02:55:18;5.37;;;3.77;;
13951;SDS011;39535;52.192;9.886;2023-09-19T02:57:47;6.23;;;3.97;;
13951;SDS011;39535;52.192;9.886;2023-09-19T03:00:14;4.87;;;3.50;;
13951;SDS011;39535;52.192;9.886;2023-09-19T03:02:41;4.83;;;3.57;;
13951;SDS011;39535;52.192;9.886;2023-09-19T03:05:10;4.97;;;3.50;;
13951;SDS011;39535;52.192;9.886;2023-09-19T03:07:37;5.40;;;3.80;;
13951;SDS011;39535;52.192;9.886;2023-09-19T03:10:05;4.07;;;2.97;;
13951;SDS011;39535;52.192;9.886;2023-09-19T03:12:33;2.97;;;2.63;;
13951;SDS011;39535;52.192;9.886;2023-09-19T03:15:00;3.53;;;3.00;;
13951;SDS011;39535;52.192;9.886;2023-09-19T03:17:26;5.13;;;3.57;;
13951;SDS011;39535;52.192;9.886;2023-09-19T03:19:53;3.87;;;3.57;;
13951;SDS011;39535;52.192;9.886;2023-09-19T03:22:19;4.00;;;3.17;;
13951;SDS011;39535;52.192;9.886;2023-09-19T03:24:46;3.77;;;3.37;;
13951;SDS011;39535;52.192;9.886;2023-09-19T03:27:14;4.70;;;3.37;;
13951;SDS011;39535;52.192;9.886;2023-09-19T03:29:41;4.57;;;4.17;;
13951;SDS011;39535;52.192;9.886;2023-09-19T03:32:07;5.23;;;4.73;;
13951;SDS011;39535;52.192;9.886;2023-09-19T03:34:35;5.23;;;4.33;;
13951;SDS011;39535;52.192;9.886;2023-09-19T03:37:02;5.03;;;4.73;;
13951;SDS011;39535;52.192;9.886;2023-09-19T03:39:29;4.97;;;4.47;;
13951;SDS011;39535;52.192;9.886;2023-09-19T03:41:55;4.47;;;4.07;;
13951;SDS011;39535;52.192;9.886;2023-09-19T03:44:23;4.93;;;4.27;;
13951;SDS011;39535;52.192;9.886;2023-09-19T03:46:49;7.07;;;4.40;;
13951;SDS011;39535;52.192;9.886;2023-09-19T03:49:16;6.17;;;4.80;;
13951;SDS011;39535;52.192;9.886;2023-09-19T03:51:42;5.43;;;4.50;;
13951;SDS011;39535;52.192;9.886;2023-09-19T03:54:09;6.27;;;5.10;;
13951;SDS011;39535;52.192;9.886;2023-09-19T03:56:35;7.57;;;5.10;;
13951;SDS011;39535;52.192;9.886;2023-09-19T03:59:01;6.13;;;5.53;;
13951;SDS011;39535;52.192;9.886;2023-09-19T04:01:30;5.70;;;5.03;;
13951;SDS011;39535;52.192;9.886;2023-09-19T04:03:57;7.73;;;5.30;;
13951;SDS011;39535;52.192;9.886;2023-09-19T04:06:24;5.90;;;5.40;;
13951;SDS011;39535;52.192;9.886;2023-09-19T04:08:52;6.67;;;5.57;;
13951;SDS011;39535;52.192;9.886;2023-09-19T04:11:19;11.83;;;6.83;;
13951;SDS011;39535;52.192;9.886;2023-09-19T04:13:46;6.03;;;5.43;;
13951;SDS011;39535;52.192;9.886;2023-09-19T04:16:14;7.80;;;6.00;;
13951;SDS011;39535;52.192;9.886;2023-09-19T04:18:41;6.13;;;5.53;;
13951;SDS011;39535;52.192;9.886;2023-09-19T04:21:08;5.70;;;5.10;;
13951;SDS011;39535;52.192;9.886;2023-09-19T04:23:34;5.67;;;5.17;;
13951;SDS011;39535;52.192;9.886;2023-09-19T04:26:01;6.97;;;5.60;;
13951;SDS011;39535;52.192;9.886;2023-09-19T04:28:28;6.47;;;5.27;;
13951;SDS011;39535;52.192;9.886;2023-09-19T04:30:55;7.47;;;4.97;;
13951;SDS011;39535;52.192;9.886;2023-09-19T04:33:22;8.33;;;5.47;;
13951;SDS011;39535;52.192;9.886;2023-09-19T04:35:50;6.43;;;5.53;;
13951;SDS011;39535;52.192;9.886;2023-09-19T04:38:17;5.93;;;5.23;;
13951;SDS011;39535;52.192;9.886;2023-09-19T04:40:44;6.70;;;5.20;;
13951;SDS011;39535;52.192;9.886;2023-09-19T04:43:10;5.17;;;4.60;;
13951;SDS011;39535;52.192;9.886;2023-09-19T04:45:37;5.40;;;4.90;;
13951;SDS011;39535;52.192;9.886;2023-09-19T04:48:05;7.97;;;4.77;;
13951;SDS011;39535;52.192;9.886;2023-09-19T04:50:33;7.87;;;4.80;;
13951;SDS011;39535;52.192;9.886;2023-09-19T04:53:01;4.60;;;4.20;;
13951;SDS011;39535;52.192;9.886;2023-09-19T04:55:28;6.67;;;5.27;;
13951;SDS011;39535;52.192;9.886;2023-09-19T04:57:55;5.17;;;4.37;;
13951;SDS011;39535;52.192;9.886;2023-09-19T05:00:22;5.20;;;4.63;;
13951;SDS011;39535;52.192;9.886;2023-09-19T05:02:49;5.77;;;4.27;;
13951;SDS011;39535;52.192;9.886;2023-09-19T05:05:17;4.70;;;4.20;;
13951;SDS011;39535;52.192;9.886;2023-09-19T05:07:44;5.67;;;4.97;;
13951;SDS011;39535;52.192;9.886;2023-09-19T05:10:13;6.50;;;4.10;;
13951;SDS011;39535;52.192;9.886;2023-09-19T05:12:39;5.37;;;4.83;;
13951;SDS011;39535;52.192;9.886;2023-09-19T05:15:07;5.93;;;4.57;;
13951;SDS011;39535;52.192;9.886;2023-09-19T05:17:34;4.67;;;4.17;;
13951;SDS011;39535;52.192;9.886;2023-09-19T05:20:01;5.67;;;4.27;;
13951;SDS011;39535;52.192;9.886;2023-09-19T05:22:40;6.13;;;4.60;;
13951;SDS011;39535;52.192;9.886;2023-09-19T05:25:08;5.03;;;4.57;;
13951;SDS011;39535;52.192;9.886;2023-09-19T05:27:36;6.30;;;4.73;;
13951;SDS011;39535;52.192;9.886;2023-09-19T05:30:02;7.03;;;4.80;;
13951;SDS011;39535;52.192;9.886;2023-09-19T05:32:30;6.07;;;5.57;;
13951;SDS011;39535;52.192;9.886;2023-09-19T05:34:56;6.83;;;4.50;;
13951;SDS011;39535;52.192;9.886;2023-09-19T05:37:22;6.23;;;4.30;;
13951;SDS011;39535;52.192;9.886;2023-09-19T05:39:51;8.00;;;4.80;;
13951;SDS011;39535;52.192;9.886;2023-09-19T05:42:18;7.90;;;4.20;;
13951;SDS011;39535;52.192;9.886;2023-09-19T05:44:45;5.27;;;4.57;;
13951;SDS011;39535;52.192;9.886;2023-09-19T05:47:12;5.77;;;4.63;;
13951;SDS011;39535;52.192;9.886;2023-09-19T05:49:38;5.80;;;4.57;;
13951;SDS011;39535;52.192;9.886;2023-09-19T05:52:06;7.00;;;5.53;;
13951;SDS011;39535;52.192;9.886;2023-09-19T05:54:32;6.87;;;4.53;;
13951;SDS011;39535;52.192;9.886;2023-09-19T05:56:59;5.27;;;4.13;;
13951;SDS011;39535;52.192;9.886;2023-09-19T05:59:26;7.40;;;4.33;;
13951;SDS011;39535;52.192;9.886;2023-09-19T06:01:54;4.97;;;4.23;;
13951;SDS011;39535;52.192;9.886;2023-09-19T06:04:21;6.07;;;4.10;;
13951;SDS011;39535;52.192;9.886;2023-09-19T06:06:48;4.83;;;3.73;;
13951;SDS011;39535;52.192;9.886;2023-09-19T06:09:14;4.07;;;3.67;;
13951;SDS011;39535;52.192;9.886;2023-09-19T06:11:41;5.63;;;3.83;;
13951;SDS011;39535;52.192;9.886;2023-09-19T06:14:07;8.53;;;3.93;;
13951;SDS011;39535;52.192;9.886;2023-09-19T06:16:35;4.67;;;3.67;;
13951;SDS011;39535;52.192;9.886;2023-09-19T06:19:04;5.50;;;3.80;;
13951;SDS011;39535;52.192;9.886;2023-09-19T06:21:31;7.23;;;3.77;;
13951;SDS011;39535;52.192;9.886;2023-09-19T06:23:59;7.90;;;3.90;;
13951;SDS011;39535;52.192;9.886;2023-09-19T06:26:25;8.80;;;3.90;;
13951;SDS011;39535;52.192;9.886;2023-09-19T06:28:51;6.27;;;3.80;;
13951;SDS011;39535;52.192;9.886;2023-09-19T06:31:18;5.03;;;4.30;;
13951;SDS011;39535;52.192;9.886;2023-09-19T06:33:47;12.27;;;4.13;;
13951;SDS011;39535;52.192;9.886;2023-09-19T06:36:15;12.10;;;5.33;;
13951;SDS011;39535;52.192;9.886;2023-09-19T06:38:42;6.33;;;3.53;;
13951;SDS011;39535;52.192;9.886;2023-09-19T06:41:08;6.90;;;4.23;;
13951;SDS011;39535;52.192;9.886;2023-09-19T06:43:35;6.40;;;4.33;;
13951;SDS011;39535;52.192;9.886;2023-09-19T06:46:01;5.57;;;4.17;;
13951;SDS011;39535;52.192;9.886;2023-09-19T06:48:28;9.30;;;4.03;;
13951;SDS011;39535;52.192;9.886;2023-09-19T06:50:55;6.67;;;3.73;;
13951;SDS011;39535;52.192;9.886;2023-09-19T06:53:24;9.77;;;3.60;;
13951;SDS011;39535;52.192;9.886;2023-09-19T06:55:51;6.47;;;3.33;;
13951;SDS011;39535;52.192;9.886;2023-09-19T06:58:18;5.23;;;3.17;;
13951;SDS011;39535;52.192;9.886;2023-09-19T07:00:45;7.47;;;3.57;;
13951;SDS011;39535;52.192;9.886;2023-09-19T07:03:13;6.07;;;2.57;;
13951;SDS011;39535;52.192;9.886;2023-09-19T07:05:41;4.80;;;2.37;;
13951;SDS011;39535;52.192;9.886;2023-09-19T07:08:08;3.30;;;2.03;;
13951;SDS011;39535;52.192;9.886;2023-09-19T07:10:38;6.30;;;2.27;;
13951;SDS011;39535;52.192;9.886;2023-09-19T07:13:07;7.20;;;2.53;;
13951;SDS011;39535;52.192;9.886;2023-09-19T07:15:36;5.33;;;2.33;;
13951;SDS011;39535;52.192;9.886;2023-09-19T07:18:04;6.40;;;2.53;;
13951;SDS011;39535;52.192;9.886;2023-09-19T07:20:32;5.70;;;2.20;;
13951;SDS011;39535;52.192;9.886;2023-09-19T07:22:59;8.60;;;2.07;;
13951;SDS011;39535;52.192;9.886;2023-09-19T07:25:26;7.33;;;2.23;;
13951;SDS011;39535;52.192;9.886;2023-09-19T07:27:56;5.87;;;2.23;;
13951;SDS011;39535;52.192;9.886;2023-09-19T07:30:25;5.23;;;1.87;;
13951;SDS011;39535;52.192;9.886;2023-09-19T07:32:52;6.73;;;2.83;;
13951;SDS011;39535;52.192;9.886;2023-09-19T07:35:18;4.57;;;1.80;;
13951;SDS011;39535;52.192;9.886;2023-09-19T07:37:46;7.53;;;2.20;;
13951;SDS011;39535;52.192;9.886;2023-09-19T07:40:14;5.90;;;2.10;;
13951;SDS011;39535;52.192;9.886;2023-09-19T07:42:40;5.63;;;2.37;;
13951;SDS011;39535;52.192;9.886;2023-09-19T07:45:10;8.23;;;1.77;;
13951;SDS011;39535;52.192;9.886;2023-09-19T07:47:39;7.40;;;1.80;;
13951;SDS011;39535;52.192;9.886;2023-09-19T07:50:06;5.40;;;1.87;;
13951;SDS011;39535;52.192;9.886;2023-09-19T07:52:32;7.40;;;1.97;;
13951;SDS011;39535;52.192;9.886;2023-09-19T07:54:59;7.47;;;1.93;;
13951;SDS011;39535;52.192;9.886;2023-09-19T07:57:26;5.10;;;1.77;;
13951;SDS011;39535;52.192;9.886;2023-09-19T07:59:53;4.67;;;1.60;;
13951;SDS011;39535;52.192;9.886;2023-09-19T08:02:21;5.10;;;1.93;;
13951;SDS011;39535;52.192;9.886;2023-09-19T08:04:48;4.37;;;1.57;;
13951;SDS011;39535;52.192;9.886;2023-09-19T08:07:14;3.27;;;1.40;;
13951;SDS011;39535;52.192;9.886;2023-09-19T08:09:41;6.23;;;2.23;;
13951;SDS011;39535;52.192;9.886;2023-09-19T08:12:11;4.70;;;1.93;;
13951;SDS011;39535;52.192;9.886;2023-09-19T08:14:38;5.60;;;1.97;;
13951;SDS011;39535;52.192;9.886;2023-09-19T08:17:06;4.67;;;1.70;;
13951;SDS011;39535;52.192;9.886;2023-09-19T08:19:35;3.60;;;1.73;;
13951;SDS011;39535;52.192;9.886;2023-09-19T08:22:01;4.93;;;1.53;;
13951;SDS011;39535;52.192;9.886;2023-09-19T08:24:28;5.03;;;1.90;;
13951;SDS011;39535;52.192;9.886;2023-09-19T08:26:56;3.23;;;1.53;;
13951;SDS011;39535;52.192;9.886;2023-09-19T08:29:24;3.77;;;2.00;;
13951;SDS011;39535;52.192;9.886;2023-09-19T08:31:53;4.20;;;1.93;;
13951;SDS011;39535;52.192;9.886;2023-09-19T08:34:20;4.00;;;1.53;;
13951;SDS011;39535;52.192;9.886;2023-09-19T08:36:49;5.10;;;1.63;;
13951;SDS011;39535;52.192;9.886;2023-09-19T08:39:16;7.60;;;1.87;;
13951;SDS011;39535;52.192;9.886;2023-09-19T08:41:44;4.50;;;1.53;;
13951;SDS011;39535;52.192;9.886;2023-09-19T08:44:11;8.10;;;2.60;;
13951;SDS011;39535;52.192;9.886;2023-09-19T08:46:37;5.90;;;1.90;;
13951;SDS011;39535;52.192;9.886;2023-09-19T08:49:08;6.60;;;1.90;;
13951;SDS011;39535;52.192;9.886;2023-09-19T08:51:45;5.90;;;1.73;;
13951;SDS011;39535;52.192;9.886;2023-09-19T08:54:21;5.07;;;1.50;;
13951;SDS011;39535;52.192;9.886;2023-09-19T08:56:51;7.00;;;2.30;;
13951;SDS011;39535;52.192;9.886;2023-09-19T08:59:21;6.40;;;1.57;;
13951;SDS011;39535;52.192;9.886;2023-09-19T09:01:50;3.33;;;1.33;;
13951;SDS011;39535;52.192;9.886;2023-09-19T09:04:19;3.03;;;1.50;;
13951;SDS011;39535;52.192;9.886;2023-09-19T09:06:46;3.60;;;1.57;;
13951;SDS011;39535;52.192;9.886;2023-09-19T09:09:13;3.73;;;1.73;;
13951;SDS011;39535;52.192;9.886;2023-09-19T09:11:42;4.10;;;1.63;;
13951;SDS011;39535;52.192;9.886;2023-09-19T09:14:08;3.93;;;1.67;;
13951;SDS011;39535;52.192;9.886;2023-09-19T09:16:36;3.33;;;1.67;;
13951;SDS011;39535;52.192;9.886;2023-09-19T09:19:03;6.40;;;1.97;;
13951;SDS011;39535;52.192;9.886;2023-09-19T09:21:30;3.97;;;1.47;;
13951;SDS011;39535;52.192;9.886;2023-09-19T09:24:07;5.77;;;1.83;;
13951;SDS011;39535;52.192;9.886;2023-09-19T09:26:54;4.50;;;1.40;;
13951;SDS011;39535;52.192;9.886;2023-09-19T09:29:31;5.40;;;1.43;;
13951;SDS011;39535;52.192;9.886;2023-09-19T09:32:16;3.93;;;1.50;;
13951;SDS011;39535;52.192;9.886;2023-09-19T09:34:44;5.30;;;1.77;;
13951;SDS011;39535;52.192;9.886;2023-09-19T09:37:12;6.43;;;1.70;;
13951;SDS011;39535;52.192;9.886;2023-09-19T09:39:48;2.27;;;1.20;;
13951;SDS011;39535;52.192;9.886;2023-09-19T09:42:25;5.00;;;1.70;;
13951;SDS011;39535;52.192;9.886;2023-09-19T09:45:09;3.83;;;1.20;;
13951;SDS011;39535;52.192;9.886;2023-09-19T09:47:42;5.47;;;1.90;;
13951;SDS011;39535;52.192;9.886;2023-09-19T09:50:23;3.50;;;1.53;;
13951;SDS011;39535;52.192;9.886;2023-09-19T09:52:54;3.20;;;1.13;;
13951;SDS011;39535;52.192;9.886;2023-09-19T09:55:26;5.60;;;1.93;;
13951;SDS011;39535;52.192;9.886;2023-09-19T09:57:59;4.90;;;1.60;;
13951;SDS011;39535;52.192;9.886;2023-09-19T10:00:51;4.47;;;1.60;;
13951;SDS011;39535;52.192;9.886;2023-09-19T10:03:23;5.53;;;1.70;;
13951;SDS011;39535;52.192;9.886;2023-09-19T10:05:57;5.67;;;1.70;;
13951;SDS011;39535;52.192;9.886;2023-09-19T10:08:27;4.50;;;1.60;;
13951;SDS011;39535;52.192;9.886;2023-09-19T10:10:56;4.63;;;2.23;;
13951;SDS011;39535;52.192;9.886;2023-09-19T10:13:31;4.93;;;1.73;;
13951;SDS011;39535;52.192;9.886;2023-09-19T10:16:06;4.53;;;2.10;;
13951;SDS011;39535;52.192;9.886;2023-09-19T10:18:36;4.00;;;1.33;;
13951;SDS011;39535;52.192;9.886;2023-09-19T10:21:04;4.83;;;1.70;;
13951;SDS011;39535;52.192;9.886;2023-09-19T10:23:32;5.10;;;2.17;;
13951;SDS011;39535;52.192;9.886;2023-09-19T10:26:01;6.23;;;2.23;;
13951;SDS011;39535;52.192;9.886;2023-09-19T10:28:31;4.80;;;2.00;;
13951;SDS011;39535;52.192;9.886;2023-09-19T10:30:59;7.67;;;1.80;;
13951;SDS011;39535;52.192;9.886;2023-09-19T10:33:26;4.40;;;1.70;;
13951;SDS011;39535;52.192;9.886;2023-09-19T10:36:02;4.20;;;1.77;;
13951;SDS011;39535;52.192;9.886;2023-09-19T10:38:31;4.87;;;2.07;;
13951;SDS011;39535;52.192;9.886;2023-09-19T10:41:00;3.33;;;1.47;;
13951;SDS011;39535;52.192;9.886;2023-09-19T10:43:29;6.07;;;2.20;;
13951;SDS011;39535;52.192;9.886;2023-09-19T10:46:00;5.57;;;2.20;;
13951;SDS011;39535;52.192;9.886;2023-09-19T10:48:29;4.23;;;2.10;;
13951;SDS011;39535;52.192;9.886;2023-09-19T10:50:57;5.53;;;2.03;;
13951;SDS011;39535;52.192;9.886;2023-09-19T10:53:31;3.97;;;1.73;;
13951;SDS011;39535;52.192;9.886;2023-09-19T10:56:07;4.80;;;2.33;;
13951;SDS011;39535;52.192;9.886;2023-09-19T10:58:39;3.37;;;1.90;;
13951;SDS011;39535;52.192;9.886;2023-09-19T11:01:11;8.20;;;2.03;;
13951;SDS011;39535;52.192;9.886;2023-09-19T11:03:39;6.33;;;1.83;;
13951;SDS011;39535;52.192;9.886;2023-09-19T11:06:09;8.80;;;2.17;;
13951;SDS011;39535;52.192;9.886;2023-09-19T11:08:57;7.13;;;2.60;;
13951;SDS011;39535;52.192;9.886;2023-09-19T11:11:47;3.17;;;2.00;;
13951;SDS011;39535;52.192;9.886;2023-09-19T11:14:29;3.40;;;2.00;;
13951;SDS011;39535;52.192;9.886;2023-09-19T11:20:21;2.70;;;1.80;;
13951;SDS011;39535;52.192;9.886;2023-09-19T11:23:17;2.93;;;1.77;;
13951;SDS011;39535;52.192;9.886;2023-09-19T11:25:49;4.47;;;1.97;;
13951;SDS011;39535;52.192;9.886;2023-09-19T11:28:35;6.33;;;2.30;;
13951;SDS011;39535;52.192;9.886;2023-09-19T11:40:36;3.03;;;1.63;;
13951;SDS011;39535;52.192;9.886;2023-09-19T11:46:05;3.77;;;1.90;;
13951;SDS011;39535;52.192;9.886;2023-09-19T11:48:32;4.80;;;2.10;;
13951;SDS011;39535;52.192;9.886;2023-09-19T11:51:10;4.43;;;2.10;;
13951;SDS011;39535;52.192;9.886;2023-09-19T11:53:48;6.20;;;1.93;;
13951;SDS011;39535;52.192;9.886;2023-09-19T11:56:17;3.37;;;2.00;;
13951;SDS011;39535;52.192;9.886;2023-09-19T11:58:45;2.73;;;1.60;;
13951;SDS011;39535;52.192;9.886;2023-09-19T12:01:15;5.73;;;2.17;;
13951;SDS011;39535;52.192;9.886;2023-09-19T12:03:52;3.50;;;2.07;;
13951;SDS011;39535;52.192;9.886;2023-09-19T12:06:23;4.33;;;2.07;;
13951;SDS011;39535;52.192;9.886;2023-09-19T12:08:50;3.87;;;2.17;;
13951;SDS011;39535;52.192;9.886;2023-09-19T12:11:19;5.40;;;1.90;;
13951;SDS011;39535;52.192;9.886;2023-09-19T12:13:48;4.07;;;2.00;;
13951;SDS011;39535;52.192;9.886;2023-09-19T12:16:15;4.70;;;2.20;;
13951;SDS011;39535;52.192;9.886;2023-09-19T12:18:43;2.40;;;1.70;;
13951;SDS011;39535;52.192;9.886;2023-09-19T12:21:28;3.63;;;1.90;;
13951;SDS011;39535;52.192;9.886;2023-09-19T12:24:00;3.77;;;1.70;;
13951;SDS011;39535;52.192;9.886;2023-09-19T12:26:30;4.87;;;2.40;;
13951;SDS011;39535;52.192;9.886;2023-09-19T12:29:05;4.87;;;2.93;;
13951;SDS011;39535;52.192;9.886;2023-09-19T12:31:50;4.83;;;2.03;;
13951;SDS011;39535;52.192;9.886;2023-09-19T12:34:21;3.70;;;1.80;;
13951;SDS011;39535;52.192;9.886;2023-09-19T12:37:04;4.00;;;1.90;;
13951;SDS011;39535;52.192;9.886;2023-09-19T12:39:36;3.47;;;2.33;;
13951;SDS011;39535;52.192;9.886;2023-09-19T12:42:03;4.93;;;2.03;;
13951;SDS011;39535;52.192;9.886;2023-09-19T12:44:34;5.40;;;2.33;;
13951;SDS011;39535;52.192;9.886;2023-09-19T12:47:07;4.13;;;2.30;;
13951;SDS011;39535;52.192;9.886;2023-09-19T12:49:35;4.53;;;2.33;;
13951;SDS011;39535;52.192;9.886;2023-09-19T12:52:03;4.27;;;2.30;;
13951;SDS011;39535;52.192;9.886;2023-09-19T12:54:37;3.47;;;2.40;;
13951;SDS011;39535;52.192;9.886;2023-09-19T12:57:05;4.17;;;2.30;;
13951;SDS011;39535;52.192;9.886;2023-09-19T12:59:31;4.03;;;2.50;;
13951;SDS011;39535;52.192;9.886;2023-09-19T13:02:03;3.90;;;2.30;;
13951;SDS011;39535;52.192;9.886;2023-09-19T13:04:32;3.80;;;1.90;;
13951;SDS011;39535;52.192;9.886;2023-09-19T13:06:59;4.03;;;2.33;;
13951;SDS011;39535;52.192;9.886;2023-09-19T13:09:28;5.57;;;1.83;;
13951;SDS011;39535;52.192;9.886;2023-09-19T13:11:59;4.83;;;2.63;;
13951;SDS011;39535;52.192;9.886;2023-09-19T13:14:27;6.00;;;1.93;;
13951;SDS011;39535;52.192;9.886;2023-09-19T13:16:57;4.00;;;1.90;;
13951;SDS011;39535;52.192;9.886;2023-09-19T13:19:35;3.63;;;2.00;;
13951;SDS011;39535;52.192;9.886;2023-09-19T13:25:04;6.20;;;2.23;;
13951;SDS011;39535;52.192;9.886;2023-09-19T13:27:33;4.03;;;2.20;;
13951;SDS011;39535;52.192;9.886;2023-09-19T13:29:59;4.23;;;2.13;;
13951;SDS011;39535;52.192;9.886;2023-09-19T13:32:26;4.63;;;2.07;;
13951;SDS011;39535;52.192;9.886;2023-09-19T13:34:52;3.50;;;1.87;;
13951;SDS011;39535;52.192;9.886;2023-09-19T13:37:19;3.70;;;2.13;;
13951;SDS011;39535;52.192;9.886;2023-09-19T13:39:45;3.80;;;1.90;;
13951;SDS011;39535;52.192;9.886;2023-09-19T13:42:13;3.60;;;2.47;;
13951;SDS011;39535;52.192;9.886;2023-09-19T13:44:41;3.23;;;1.93;;
13951;SDS011;39535;52.192;9.886;2023-09-19T13:47:08;3.27;;;2.07;;
13951;SDS011;39535;52.192;9.886;2023-09-19T13:49:35;4.63;;;1.93;;
13951;SDS011;39535;52.192;9.886;2023-09-19T13:52:02;6.50;;;2.17;;
13951;SDS011;39535;52.192;9.886;2023-09-19T13:54:30;3.83;;;1.80;;
13951;SDS011;39535;52.192;9.886;2023-09-19T13:56:56;3.57;;;2.10;;
13951;SDS011;39535;52.192;9.886;2023-09-19T13:59:24;4.17;;;1.77;;
13951;SDS011;39535;52.192;9.886;2023-09-19T14:01:50;2.47;;;1.73;;
13951;SDS011;39535;52.192;9.886;2023-09-19T14:04:18;3.47;;;2.10;;
13951;SDS011;39535;52.192;9.886;2023-09-19T14:06:45;2.83;;;1.60;;
13951;SDS011;39535;52.192;9.886;2023-09-19T14:09:12;5.37;;;2.13;;
13951;SDS011;39535;52.192;9.886;2023-09-19T14:11:38;5.27;;;1.90;;
13951;SDS011;39535;52.192;9.886;2023-09-19T14:14:07;4.10;;;1.80;;
13951;SDS011;39535;52.192;9.886;2023-09-19T14:16:34;2.83;;;1.83;;
13951;SDS011;39535;52.192;9.886;2023-09-19T14:19:01;2.93;;;2.17;;
13951;SDS011;39535;52.192;9.886;2023-09-19T14:21:28;2.90;;;2.00;;
13951;SDS011;39535;52.192;9.886;2023-09-19T14:23:54;3.27;;;1.80;;
13951;SDS011;39535;52.192;9.886;2023-09-19T14:26:21;6.87;;;1.80;;
13951;SDS011;39535;52.192;9.886;2023-09-19T14:28:48;2.10;;;1.90;;
13951;SDS011;39535;52.192;9.886;2023-09-19T14:31:14;5.90;;;2.13;;
13951;SDS011;39535;52.192;9.886;2023-09-19T14:33:42;5.37;;;2.00;;
13951;SDS011;39535;52.192;9.886;2023-09-19T14:36:09;6.60;;;2.10;;
13951;SDS011;39535;52.192;9.886;2023-09-19T14:38:37;3.87;;;2.17;;
13951;SDS011;39535;52.192;9.886;2023-09-19T14:41:04;3.27;;;2.10;;
13951;SDS011;39535;52.192;9.886;2023-09-19T14:43:32;3.10;;;1.90;;
13951;SDS011;39535;52.192;9.886;2023-09-19T14:46:02;3.27;;;1.70;;
13951;SDS011;39535;52.192;9.886;2023-09-19T14:48:28;4.23;;;2.17;;
13951;SDS011;39535;52.192;9.886;2023-09-19T14:50:57;3.13;;;2.00;;
13951;SDS011;39535;52.192;9.886;2023-09-19T14:53:28;3.33;;;1.77;;
13951;SDS011;39535;52.192;9.886;2023-09-19T14:55:54;3.70;;;1.70;;
13951;SDS011;39535;52.192;9.886;2023-09-19T14:58:21;2.93;;;1.70;;
13951;SDS011;39535;52.192;9.886;2023-09-19T15:00:47;3.30;;;1.40;;
13951;SDS011;39535;52.192;9.886;2023-09-19T15:03:16;3.90;;;1.80;;
13951;SDS011;39535;52.192;9.886;2023-09-19T15:05:43;5.47;;;1.87;;
13951;SDS011;39535;52.192;9.886;2023-09-19T15:08:10;3.87;;;1.57;;
13951;SDS011;39535;52.192;9.886;2023-09-19T15:10:37;1.97;;;1.30;;
13951;SDS011;39535;52.192;9.886;2023-09-19T15:13:03;2.07;;;1.50;;
13951;SDS011;39535;52.192;9.886;2023-09-19T15:15:31;2.63;;;1.50;;
13951;SDS011;39535;52.192;9.886;2023-09-19T15:17:57;3.17;;;1.67;;